Terminal Aerodrome Forecast
Issued by NWS Green Bay, WI

Home | Current Version | Previous Version | Graphics & Text | Print | Product List | Glossary On
Versions: 1 2 3 4 5 6 7 8 9 10 11 12 13 14 15 16 17 18 19
000
FTUS43 KGRB 241502 AAA
TAFGRB
TAF AMD
KGRB 241502Z 2415/2512 03025G38KT 1/2SM -SN FZFG BLSN OVC011
      TEMPO 2415/2417 2SM -FZDZSN OVC008
     FM241700 03022G32KT 4SM -FZDZSN OVC008
     FM250000 01013G23KT 2SM -FZDZSN OVC008
     FM250500 35012G21KT 3SM -SN OVC005
     FM250800 32010G18KT 6SM -SN OVC012=

USA.gov is the U.S. government's official web portal to all federal, state and local government web resources and services.